sensor_id;sensor_type;location;lat;lon;timestamp;pressure;altitude;pressure_sealevel;temperature;humidity
22000;BME280;11164;48.818;2.322;2022-11-12T00:00:48;101954.25;;;11.15;53.13
22000;BME280;11164;48.818;2.322;2022-11-12T00:03:14;101955.78;;;11.09;53.23
22000;BME280;11164;48.818;2.322;2022-11-12T00:05:39;101955.59;;;11.11;52.96
22000;BME280;11164;48.818;2.322;2022-11-12T00:08:05;101961.34;;;11.07;53.28
22000;BME280;11164;48.818;2.322;2022-11-12T00:10:32;101959.63;;;11.06;53.25
22000;BME280;11164;48.818;2.322;2022-11-12T00:12:58;101952.72;;;11.04;53.19
22000;BME280;11164;48.818;2.322;2022-11-12T00:15:23;101926.41;;;10.90;53.44
22000;BME280;11164;48.818;2.322;2022-11-12T00:17:49;101955.59;;;11.02;53.45
22000;BME280;11164;48.818;2.322;2022-11-12T00:20:14;101957.63;;;11.09;53.08
22000;BME280;11164;48.818;2.322;2022-11-12T00:22:40;101961.31;;;10.99;53.36
22000;BME280;11164;48.818;2.322;2022-11-12T00:25:05;101958.13;;;10.96;53.42
22000;BME280;11164;48.818;2.322;2022-11-12T00:27:32;101957.78;;;10.91;53.22
22000;BME280;11164;48.818;2.322;2022-11-12T00:29:58;101963.69;;;11.02;53.12
22000;BME280;11164;48.818;2.322;2022-11-12T00:32:23;101964.88;;;11.00;53.48
22000;BME280;11164;48.818;2.322;2022-11-12T00:34:48;101963.84;;;11.01;53.40
22000;BME280;11164;48.818;2.322;2022-11-12T00:37:14;101955.75;;;11.01;53.14
22000;BME280;11164;48.818;2.322;2022-11-12T00:39:40;101960.50;;;10.99;53.37
22000;BME280;11164;48.818;2.322;2022-11-12T00:42:06;101963.84;;;11.01;53.34
22000;BME280;11164;48.818;2.322;2022-11-12T00:44:31;101958.28;;;11.02;53.31
22000;BME280;11164;48.818;2.322;2022-11-12T00:46:56;101959.16;;;10.95;53.93
22000;BME280;11164;48.818;2.322;2022-11-12T00:49:22;101953.75;;;10.95;53.57
22000;BME280;11164;48.818;2.322;2022-11-12T00:51:48;101943.78;;;10.95;53.54
22000;BME280;11164;48.818;2.322;2022-11-12T00:54:13;101944.13;;;11.00;53.23
22000;BME280;11164;48.818;2.322;2022-11-12T00:56:39;101948.16;;;11.04;53.11
22000;BME280;11164;48.818;2.322;2022-11-12T00:59:04;101946.50;;;11.03;53.16
22000;BME280;11164;48.818;2.322;2022-11-12T01:01:30;101950.34;;;11.01;53.46
22000;BME280;11164;48.818;2.322;2022-11-12T01:03:57;101952.41;;;11.07;53.14
22000;BME280;11164;48.818;2.322;2022-11-12T01:06:23;101948.84;;;10.98;53.27
22000;BME280;11164;48.818;2.322;2022-11-12T01:08:49;101957.28;;;10.95;53.26
22000;BME280;11164;48.818;2.322;2022-11-12T01:11:17;101935.50;;;10.88;53.33
22000;BME280;11164;48.818;2.322;2022-11-12T01:13:45;101943.97;;;11.02;53.20
22000;BME280;11164;48.818;2.322;2022-11-12T01:16:17;101947.16;;;11.05;53.56
22000;BME280;11164;48.818;2.322;2022-11-12T01:18:44;101942.78;;;11.04;53.11
22000;BME280;11164;48.818;2.322;2022-11-12T01:21:10;101938.72;;;11.00;53.17
22000;BME280;11164;48.818;2.322;2022-11-12T01:23:37;101940.59;;;11.00;53.19
22000;BME280;11164;48.818;2.322;2022-11-12T01:26:15;101935.69;;;11.03;53.55
22000;BME280;11164;48.818;2.322;2022-11-12T01:28:41;101937.38;;;11.04;53.20
22000;BME280;11164;48.818;2.322;2022-11-12T01:31:24;101926.25;;;10.99;53.74
22000;BME280;11164;48.818;2.322;2022-11-12T01:33:56;101927.94;;;11.00;53.47
22000;BME280;11164;48.818;2.322;2022-11-12T01:36:22;101923.69;;;10.98;53.34
22000;BME280;11164;48.818;2.322;2022-11-12T01:38:48;101923.53;;;10.91;53.41
22000;BME280;11164;48.818;2.322;2022-11-12T01:41:19;101923.88;;;10.88;53.64
22000;BME280;11164;48.818;2.322;2022-11-12T01:43:45;101922.84;;;10.89;53.50
22000;BME280;11164;48.818;2.322;2022-11-12T01:46:20;101925.41;;;10.91;53.64
22000;BME280;11164;48.818;2.322;2022-11-12T01:48:51;101925.22;;;10.92;53.61
22000;BME280;11164;48.818;2.322;2022-11-12T01:51:20;101930.47;;;10.94;53.37
22000;BME280;11164;48.818;2.322;2022-11-12T01:53:48;101921.69;;;10.92;53.49
22000;BME280;11164;48.818;2.322;2022-11-12T01:56:16;101910.38;;;10.96;53.38
22000;BME280;11164;48.818;2.322;2022-11-12T01:58:45;101905.84;;;10.97;53.44
22000;BME280;11164;48.818;2.322;2022-11-12T02:01:11;101900.09;;;10.92;53.33
22000;BME280;11164;48.818;2.322;2022-11-12T02:03:36;101906.69;;;10.97;53.25
22000;BME280;11164;48.818;2.322;2022-11-12T02:06:05;101910.03;;;10.91;53.40
22000;BME280;11164;48.818;2.322;2022-11-12T02:08:32;101911.22;;;10.80;53.62
22000;BME280;11164;48.818;2.322;2022-11-12T02:11:14;101906.00;;;10.71;54.02
22000;BME280;11164;48.818;2.322;2022-11-12T02:13:41;101910.69;;;10.68;53.97
22000;BME280;11164;48.818;2.322;2022-11-12T02:16:41;101927.25;;;10.65;54.10
22000;BME280;11164;48.818;2.322;2022-11-12T02:19:11;101915.44;;;10.58;53.99
22000;BME280;11164;48.818;2.322;2022-11-12T02:21:37;101932.28;;;10.60;53.85
22000;BME280;11164;48.818;2.322;2022-11-12T02:24:29;101930.72;;;10.58;54.00
22000;BME280;11164;48.818;2.322;2022-11-12T02:26:53;101933.75;;;10.55;53.92
22000;BME280;11164;48.818;2.322;2022-11-12T02:29:20;101929.88;;;10.57;53.70
22000;BME280;11164;48.818;2.322;2022-11-12T02:31:46;101920.25;;;10.55;53.61
22000;BME280;11164;48.818;2.322;2022-11-12T02:34:12;101907.47;;;10.48;54.16
22000;BME280;11164;48.818;2.322;2022-11-12T02:36:37;101909.84;;;10.60;53.83
22000;BME280;11164;48.818;2.322;2022-11-12T02:39:03;101903.41;;;10.53;53.95
22000;BME280;11164;48.818;2.322;2022-11-12T02:41:29;101899.94;;;10.60;53.67
22000;BME280;11164;48.818;2.322;2022-11-12T02:43:54;101892.28;;;10.47;53.81
22000;BME280;11164;48.818;2.322;2022-11-12T02:46:20;101905.44;;;10.50;53.92
22000;BME280;11164;48.818;2.322;2022-11-12T02:48:45;101903.06;;;10.47;53.80
22000;BME280;11164;48.818;2.322;2022-11-12T02:51:11;101904.09;;;10.46;53.88
22000;BME280;11164;48.818;2.322;2022-11-12T02:53:36;101897.66;;;10.47;53.75
22000;BME280;11164;48.818;2.322;2022-11-12T02:56:01;101899.38;;;10.48;53.71
22000;BME280;11164;48.818;2.322;2022-11-12T02:58:27;101897.66;;;10.47;53.71
22000;BME280;11164;48.818;2.322;2022-11-12T03:00:54;101902.38;;;10.45;53.87
22000;BME280;11164;48.818;2.322;2022-11-12T03:03:19;101894.13;;;10.47;53.87
22000;BME280;11164;48.818;2.322;2022-11-12T03:05:52;101899.03;;;10.52;53.85
22000;BME280;11164;48.818;2.322;2022-11-12T03:08:18;101899.19;;;10.50;53.89
22000;BME280;11164;48.818;2.322;2022-11-12T03:10:43;101897.31;;;10.42;54.17
22000;BME280;11164;48.818;2.322;2022-11-12T03:13:08;101884.69;;;10.35;54.45
22000;BME280;11164;48.818;2.322;2022-11-12T03:15:34;101877.09;;;10.38;54.31
22000;BME280;11164;48.818;2.322;2022-11-12T03:17:59;101875.91;;;10.41;54.12
22000;BME280;11164;48.818;2.322;2022-11-12T03:20:25;101886.56;;;10.50;54.15
22000;BME280;11164;48.818;2.322;2022-11-12T03:23:09;101889.25;;;10.50;54.41
22000;BME280;11164;48.818;2.322;2022-11-12T03:25:35;101880.16;;;10.52;54.16
22000;BME280;11164;48.818;2.322;2022-11-12T03:28:06;101879.66;;;10.48;54.40
22000;BME280;11164;48.818;2.322;2022-11-12T03:30:34;101875.44;;;10.54;54.24
22000;BME280;11164;48.818;2.322;2022-11-12T03:32:59;101881.16;;;10.50;54.26
22000;BME280;11164;48.818;2.322;2022-11-12T03:35:25;101872.56;;;10.47;54.37
22000;BME280;11164;48.818;2.322;2022-11-12T03:37:51;101873.41;;;10.47;54.47
22000;BME280;11164;48.818;2.322;2022-11-12T03:40:17;101872.25;;;10.50;54.50
22000;BME280;11164;48.818;2.322;2022-11-12T03:42:46;101871.22;;;10.43;54.73
22000;BME280;11164;48.818;2.322;2022-11-12T03:45:12;101872.06;;;10.52;54.78
22000;BME280;11164;48.818;2.322;2022-11-12T03:47:45;101873.63;;;10.62;54.65
22000;BME280;11164;48.818;2.322;2022-11-12T03:50:12;101881.88;;;10.61;54.42
22000;BME280;11164;48.818;2.322;2022-11-12T03:52:39;101879.34;;;10.59;54.63
22000;BME280;11164;48.818;2.322;2022-11-12T03:55:08;101885.91;;;10.65;54.53
22000;BME280;11164;48.818;2.322;2022-11-12T03:57:33;101888.63;;;10.73;54.30
22000;BME280;11164;48.818;2.322;2022-11-12T03:59:58;101889.31;;;10.83;54.27
22000;BME280;11164;48.818;2.322;2022-11-12T04:02:24;101889.47;;;10.82;54.20
22000;BME280;11164;48.818;2.322;2022-11-12T04:04:52;101892.69;;;10.77;54.41
22000;BME280;11164;48.818;2.322;2022-11-12T04:07:36;101893.19;;;10.64;54.80
22000;BME280;11164;48.818;2.322;2022-11-12T04:10:20;101891.31;;;10.73;54.73
22000;BME280;11164;48.818;2.322;2022-11-12T04:12:45;101901.97;;;10.83;54.50
22000;BME280;11164;48.818;2.322;2022-11-12T04:15:29;101903.97;;;10.64;54.85
22000;BME280;11164;48.818;2.322;2022-11-12T04:17:54;101911.06;;;10.65;54.94
22000;BME280;11164;48.818;2.322;2022-11-12T04:20:38;101911.41;;;10.71;55.01
22000;BME280;11164;48.818;2.322;2022-11-12T04:23:22;101908.88;;;10.77;54.82
22000;BME280;11164;48.818;2.322;2022-11-12T04:25:48;101897.38;;;10.75;54.73
22000;BME280;11164;48.818;2.322;2022-11-12T04:28:31;101888.78;;;10.72;54.69
22000;BME280;11164;48.818;2.322;2022-11-12T04:30:56;101891.50;;;10.72;54.89
22000;BME280;11164;48.818;2.322;2022-11-12T04:33:22;101890.16;;;10.76;54.86
22000;BME280;11164;48.818;2.322;2022-11-12T04:35:47;101891.66;;;10.70;54.86
22000;BME280;11164;48.818;2.322;2022-11-12T04:38:12;101892.34;;;10.64;55.07
22000;BME280;11164;48.818;2.322;2022-11-12T04:40:38;101881.22;;;10.67;54.76
22000;BME280;11164;48.818;2.322;2022-11-12T04:43:21;101885.75;;;10.66;54.96
22000;BME280;11164;48.818;2.322;2022-11-12T04:46:25;101892.28;;;10.47;55.19
22000;BME280;11164;48.818;2.322;2022-11-12T04:48:50;101893.13;;;10.56;55.03
22000;BME280;11164;48.818;2.322;2022-11-12T04:51:16;101894.47;;;10.52;55.21
22000;BME280;11164;48.818;2.322;2022-11-12T04:54:00;101892.97;;;10.58;54.96
22000;BME280;11164;48.818;2.322;2022-11-12T04:56:25;101885.56;;;10.60;54.88
22000;BME280;11164;48.818;2.322;2022-11-12T04:58:50;101883.53;;;10.54;55.03
22000;BME280;11164;48.818;2.322;2022-11-12T05:01:15;101891.28;;;10.57;54.96
22000;BME280;11164;48.818;2.322;2022-11-12T05:03:41;101886.88;;;10.47;55.12
22000;BME280;11164;48.818;2.322;2022-11-12T05:06:06;101888.22;;;10.43;55.26
22000;BME280;11164;48.818;2.322;2022-11-12T05:08:52;101886.38;;;10.52;54.97
22000;BME280;11164;48.818;2.322;2022-11-12T05:11:17;101887.91;;;10.55;54.92
22000;BME280;11164;48.818;2.322;2022-11-12T05:13:42;101896.00;;;10.55;54.99
22000;BME280;11164;48.818;2.322;2022-11-12T05:16:07;101894.81;;;10.49;55.15
22000;BME280;11164;48.818;2.322;2022-11-12T05:18:33;101893.31;;;10.46;55.14
22000;BME280;11164;48.818;2.322;2022-11-12T05:20:58;101897.16;;;10.44;55.06
22000;BME280;11164;48.818;2.322;2022-11-12T05:23:43;101887.22;;;10.44;55.05
22000;BME280;11164;48.818;2.322;2022-11-12T05:26:08;101882.34;;;10.56;54.87
22000;BME280;11164;48.818;2.322;2022-11-12T05:28:34;101884.75;;;10.59;54.93
22000;BME280;11164;48.818;2.322;2022-11-12T05:30:59;101882.56;;;10.63;54.66
22000;BME280;11164;48.818;2.322;2022-11-12T05:33:24;101888.63;;;10.65;54.71
22000;BME280;11164;48.818;2.322;2022-11-12T05:35:50;101893.81;;;10.50;55.03
22000;BME280;11164;48.818;2.322;2022-11-12T05:38:15;101887.91;;;10.46;55.07
22000;BME280;11164;48.818;2.322;2022-11-12T05:40:43;101892.28;;;10.39;55.22
22000;BME280;11164;48.818;2.322;2022-11-12T05:43:08;101886.69;;;10.32;55.34
22000;BME280;11164;48.818;2.322;2022-11-12T05:45:34;101879.97;;;10.45;54.90
22000;BME280;11164;48.818;2.322;2022-11-12T05:47:59;101875.59;;;10.52;54.59
22000;BME280;11164;48.818;2.322;2022-11-12T05:50:25;101878.66;;;10.57;54.48
22000;BME280;11164;48.818;2.322;2022-11-12T05:52:50;101873.63;;;10.62;54.41
22000;BME280;11164;48.818;2.322;2022-11-12T05:55:15;101879.13;;;10.53;54.52
22000;BME280;11164;48.818;2.322;2022-11-12T05:57:41;101873.72;;;10.36;54.70
22000;BME280;11164;48.818;2.322;2022-11-12T06:00:06;101892.09;;;10.49;54.60
22000;BME280;11164;48.818;2.322;2022-11-12T06:02:32;101889.59;;;10.39;54.74
22000;BME280;11164;48.818;2.322;2022-11-12T06:04:57;101900.88;;;10.43;54.46
22000;BME280;11164;48.818;2.322;2022-11-12T06:07:23;101901.91;;;10.50;54.61
22000;BME280;11164;48.818;2.322;2022-11-12T06:09:48;101894.47;;;10.52;54.47
22000;BME280;11164;48.818;2.322;2022-11-12T06:12:13;101896.66;;;10.40;54.64
22000;BME280;11164;48.818;2.322;2022-11-12T06:14:38;101894.13;;;10.39;54.79
22000;BME280;11164;48.818;2.322;2022-11-12T06:17:04;101887.06;;;10.38;54.64
22000;BME280;11164;48.818;2.322;2022-11-12T06:19:29;101894.63;;;10.34;54.71
22000;BME280;11164;48.818;2.322;2022-11-12T06:21:54;101907.75;;;10.37;54.80
22000;BME280;11164;48.818;2.322;2022-11-12T06:24:19;101903.38;;;10.36;54.79
22000;BME280;11164;48.818;2.322;2022-11-12T06:26:45;101887.06;;;10.38;54.64
22000;BME280;11164;48.818;2.322;2022-11-12T06:29:10;101893.41;;;10.28;55.12
22000;BME280;11164;48.818;2.322;2022-11-12T06:31:35;101895.94;;;10.30;55.02
22000;BME280;11164;48.818;2.322;2022-11-12T06:34:01;101896.31;;;10.27;55.03
22000;BME280;11164;48.818;2.322;2022-11-12T06:36:27;101900.34;;;10.31;55.01
22000;BME280;11164;48.818;2.322;2022-11-12T06:38:52;101908.94;;;10.35;54.72
22000;BME280;11164;48.818;2.322;2022-11-12T06:41:17;101896.47;;;10.42;54.80
22000;BME280;11164;48.818;2.322;2022-11-12T06:43:43;101904.06;;;10.38;54.68
22000;BME280;11164;48.818;2.322;2022-11-12T06:46:13;101906.25;;;10.35;54.87
22000;BME280;11164;48.818;2.322;2022-11-12T06:48:39;101894.94;;;10.31;54.62
22000;BME280;11164;48.818;2.322;2022-11-12T06:51:11;101906.72;;;10.30;54.88
22000;BME280;11164;48.818;2.322;2022-11-12T06:53:39;101909.09;;;10.33;54.58
22000;BME280;11164;48.818;2.322;2022-11-12T06:56:06;101907.94;;;10.36;54.43
22000;BME280;11164;48.818;2.322;2022-11-12T06:58:31;101914.00;;;10.38;54.30
22000;BME280;11164;48.818;2.322;2022-11-12T07:01:09;101905.56;;;10.32;54.44
22000;BME280;11164;48.818;2.322;2022-11-12T07:03:36;101913.50;;;10.34;54.12
22000;BME280;11164;48.818;2.322;2022-11-12T07:06:05;101912.47;;;10.27;54.48
22000;BME280;11164;48.818;2.322;2022-11-12T07:08:31;101921.84;;;10.15;54.71
22000;BME280;11164;48.818;2.322;2022-11-12T07:10:57;101916.13;;;10.18;54.63
22000;BME280;11164;48.818;2.322;2022-11-12T07:13:22;101909.75;;;10.19;54.50
22000;BME280;11164;48.818;2.322;2022-11-12T07:15:47;101912.59;;;10.17;54.51
22000;BME280;11164;48.818;2.322;2022-11-12T07:18:13;101910.09;;;10.24;54.26
22000;BME280;11164;48.818;2.322;2022-11-12T07:20:38;101914.47;;;10.17;54.42
22000;BME280;11164;48.818;2.322;2022-11-12T07:23:03;101919.84;;;10.17;54.39
22000;BME280;11164;48.818;2.322;2022-11-12T07:25:28;101921.25;;;10.29;54.15
22000;BME280;11164;48.818;2.322;2022-11-12T07:27:54;101919.19;;;10.23;54.38
22000;BME280;11164;48.818;2.322;2022-11-12T07:30:19;101924.78;;;10.38;54.10
22000;BME280;11164;48.818;2.322;2022-11-12T07:32:44;101933.75;;;10.46;53.97
22000;BME280;11164;48.818;2.322;2022-11-12T07:35:10;101930.06;;;10.56;53.61
22000;BME280;11164;48.818;2.322;2022-11-12T07:37:36;101933.13;;;10.61;53.61
22000;BME280;11164;48.818;2.322;2022-11-12T07:40:02;101929.44;;;10.62;53.64
22000;BME280;11164;48.818;2.322;2022-11-12T07:42:31;101941.56;;;10.66;53.86
22000;BME280;11164;48.818;2.322;2022-11-12T07:44:57;101940.56;;;10.67;53.93
22000;BME280;11164;48.818;2.322;2022-11-12T07:47:22;101929.94;;;10.74;53.62
22000;BME280;11164;48.818;2.322;2022-11-12T07:49:47;101936.03;;;10.76;53.67
22000;BME280;11164;48.818;2.322;2022-11-12T07:52:13;101936.69;;;10.78;53.49
22000;BME280;11164;48.818;2.322;2022-11-12T07:54:38;101934.53;;;10.90;53.36
22000;BME280;11164;48.818;2.322;2022-11-12T07:57:03;101943.97;;;11.02;53.27
22000;BME280;11164;48.818;2.322;2022-11-12T07:59:29;101954.06;;;11.08;53.24
22000;BME280;11164;48.818;2.322;2022-11-12T08:01:54;101950.88;;;11.04;53.17
22000;BME280;11164;48.818;2.322;2022-11-12T08:04:20;101957.28;;;11.03;53.39
22000;BME280;11164;48.818;2.322;2022-11-12T08:06:45;101959.31;;;11.10;53.41
22000;BME280;11164;48.818;2.322;2022-11-12T08:09:11;101964.69;;;11.10;53.43
22000;BME280;11164;48.818;2.322;2022-11-12T08:11:36;101955.78;;;11.09;53.45
22000;BME280;11164;48.818;2.322;2022-11-12T08:14:02;101957.63;;;11.09;53.52
22000;BME280;11164;48.818;2.322;2022-11-12T08:16:28;101960.47;;;11.15;53.53
22000;BME280;11164;48.818;2.322;2022-11-12T08:18:54;101960.31;;;11.17;53.61
22000;BME280;11164;48.818;2.322;2022-11-12T08:21:19;101945.47;;;11.13;53.49
22000;BME280;11164;48.818;2.322;2022-11-12T08:23:45;101960.47;;;11.15;53.65
22000;BME280;11164;48.818;2.322;2022-11-12T08:26:12;101957.13;;;11.21;53.47
22000;BME280;11164;48.818;2.322;2022-11-12T08:28:38;101970.13;;;11.26;53.39
22000;BME280;11164;48.818;2.322;2022-11-12T08:31:05;101966.75;;;11.16;53.85
22000;BME280;11164;48.818;2.322;2022-11-12T08:33:31;101977.84;;;11.37;53.50
22000;BME280;11164;48.818;2.322;2022-11-12T08:35:57;101974.47;;;11.43;53.40
22000;BME280;11164;48.818;2.322;2022-11-12T08:38:23;101965.34;;;11.44;53.49
22000;BME280;11164;48.818;2.322;2022-11-12T08:40:48;101978.88;;;11.36;53.65
22000;BME280;11164;48.818;2.322;2022-11-12T08:43:13;101982.41;;;11.45;53.66
22000;BME280;11164;48.818;2.322;2022-11-12T08:45:40;101984.91;;;11.55;53.44
22000;BME280;11164;48.818;2.322;2022-11-12T08:48:07;101983.03;;;11.63;53.31
22000;BME280;11164;48.818;2.322;2022-11-12T08:50:34;101985.41;;;11.67;53.17
22000;BME280;11164;48.818;2.322;2022-11-12T08:53:00;101984.59;;;11.66;53.32
22000;BME280;11164;48.818;2.322;2022-11-12T08:55:27;101975.59;;;11.74;53.12
22000;BME280;11164;48.818;2.322;2022-11-12T08:57:53;101973.91;;;11.81;53.35
22000;BME280;11164;48.818;2.322;2022-11-12T09:00:18;101967.94;;;12.02;52.80
22000;BME280;11164;48.818;2.322;2022-11-12T09:02:44;101959.34;;;11.98;52.63
22000;BME280;11164;48.818;2.322;2022-11-12T09:05:09;101966.25;;;12.09;52.64
22000;BME280;11164;48.818;2.322;2022-11-12T09:07:34;101965.72;;;12.06;52.70
22000;BME280;11164;48.818;2.322;2022-11-12T09:10:00;101972.47;;;12.18;52.88
22000;BME280;11164;48.818;2.322;2022-11-12T09:12:26;101969.88;;;12.25;52.73
22000;BME280;11164;48.818;2.322;2022-11-12T09:14:51;101962.03;;;12.38;52.39
22000;BME280;11164;48.818;2.322;2022-11-12T09:17:17;101975.69;;;12.45;52.20
22000;BME280;11164;48.818;2.322;2022-11-12T09:19:42;101964.59;;;12.31;52.63
22000;BME280;11164;48.818;2.322;2022-11-12T09:22:07;101976.59;;;12.37;52.95
22000;BME280;11164;48.818;2.322;2022-11-12T09:24:33;101970.59;;;12.50;52.59
22000;BME280;11164;48.818;2.322;2022-11-12T09:26:58;101966.16;;;12.57;52.44
22000;BME280;11164;48.818;2.322;2022-11-12T09:29:23;101956.25;;;12.72;52.24
22000;BME280;11164;48.818;2.322;2022-11-12T09:31:49;101954.94;;;12.68;52.32
22000;BME280;11164;48.818;2.322;2022-11-12T09:34:15;101957.03;;;12.81;52.14
22000;BME280;11164;48.818;2.322;2022-11-12T09:36:40;101965.63;;;12.93;52.37
22000;BME280;11164;48.818;2.322;2022-11-12T09:39:06;101953.63;;;13.10;51.73
22000;BME280;11164;48.818;2.322;2022-11-12T09:41:38;101956.56;;;13.01;51.95
22000;BME280;11164;48.818;2.322;2022-11-12T09:44:17;101947.63;;;13.00;52.03
22000;BME280;11164;48.818;2.322;2022-11-12T09:49:43;101964.31;;;13.27;51.56
22000;BME280;11164;48.818;2.322;2022-11-12T09:52:25;101973.88;;;13.38;51.36
22000;BME280;11164;48.818;2.322;2022-11-12T09:55:44;101969.78;;;13.42;50.32
22000;BME280;11164;48.818;2.322;2022-11-12T09:58:14;101972.22;;;13.52;51.65
22000;BME280;11164;48.818;2.322;2022-11-12T10:00:42;101978.69;;;13.65;51.61
22000;BME280;11164;48.818;2.322;2022-11-12T10:03:24;101982.50;;;13.56;51.63
22000;BME280;11164;48.818;2.322;2022-11-12T10:06:00;101977.91;;;13.57;51.93
22000;BME280;11164;48.818;2.322;2022-11-12T10:08:45;101973.53;;;13.70;51.70
22000;BME280;11164;48.818;2.322;2022-11-12T10:14:45;101977.38;;;13.76;51.37
22000;BME280;11164;48.818;2.322;2022-11-12T10:17:23;101976.50;;;13.99;51.58
22000;BME280;11164;48.818;2.322;2022-11-12T10:20:10;101977.66;;;14.26;50.42
22000;BME280;11164;48.818;2.322;2022-11-12T10:23:08;101975.91;;;14.18;50.98
22000;BME280;11164;48.818;2.322;2022-11-12T10:25:37;101981.88;;;13.84;51.93
22000;BME280;11164;48.818;2.322;2022-11-12T10:28:15;101970.91;;;13.77;52.12
22000;BME280;11164;48.818;2.322;2022-11-12T10:30:46;101968.63;;;14.04;51.66
22000;BME280;11164;48.818;2.322;2022-11-12T10:33:13;101964.00;;;14.34;51.21
22000;BME280;11164;48.818;2.322;2022-11-12T10:35:39;101962.44;;;14.61;50.79
22000;BME280;11164;48.818;2.322;2022-11-12T10:38:09;101955.94;;;14.41;50.74
22000;BME280;11164;48.818;2.322;2022-11-12T10:40:40;101959.91;;;14.23;51.52
22000;BME280;11164;48.818;2.322;2022-11-12T10:45:44;101951.59;;;14.47;51.01
22000;BME280;11164;48.818;2.322;2022-11-12T10:50:48;101959.44;;;14.56;50.88
22000;BME280;11164;48.818;2.322;2022-11-12T10:53:28;101953.91;;;14.65;50.32
22000;BME280;11164;48.818;2.322;2022-11-12T10:56:00;101942.97;;;14.58;50.82
22000;BME280;11164;48.818;2.322;2022-11-12T10:58:26;101927.72;;;14.57;51.09
22000;BME280;11164;48.818;2.322;2022-11-12T11:00:55;101924.94;;;14.72;50.72
22000;BME280;11164;48.818;2.322;2022-11-12T11:03:34;101934.41;;;14.97;50.13
22000;BME280;11164;48.818;2.322;2022-11-12T11:06:03;101935.44;;;14.96;50.18
22000;BME280;11164;48.818;2.322;2022-11-12T11:08:42;101928.56;;;15.00;50.04
22000;BME280;11164;48.818;2.322;2022-11-12T11:11:26;101923.50;;;15.47;48.64
22000;BME280;11164;48.818;2.322;2022-11-12T11:13:54;101917.47;;;15.52;49.30
22000;BME280;11164;48.818;2.322;2022-11-12T11:16:25;101911.16;;;15.45;49.40
22000;BME280;11164;48.818;2.322;2022-11-12T11:19:03;101917.47;;;15.52;48.71
22000;BME280;11164;48.818;2.322;2022-11-12T11:21:56;101913.63;;;15.40;48.47
22000;BME280;11164;48.818;2.322;2022-11-12T11:24:46;101908.94;;;15.55;49.30
22000;BME280;11164;48.818;2.322;2022-11-12T11:30:12;101896.34;;;15.89;48.35
22000;BME280;11164;48.818;2.322;2022-11-12T11:37:56;101886.41;;;16.09;48.83
22000;BME280;11164;48.818;2.322;2022-11-12T11:40:29;101880.91;;;15.89;49.10
22000;BME280;11164;48.818;2.322;2022-11-12T11:48:46;101883.75;;;16.43;48.17
22000;BME280;11164;48.818;2.322;2022-11-12T11:54:05;101870.63;;;16.66;47.82
22000;BME280;11164;48.818;2.322;2022-11-12T11:56:40;101869.59;;;16.81;47.39
22000;BME280;11164;48.818;2.322;2022-11-12T12:04:51;101861.84;;;16.64;47.93
22000;BME280;11164;48.818;2.322;2022-11-12T12:07:49;101865.31;;;16.45;48.34
22000;BME280;11164;48.818;2.322;2022-11-12T12:21:16;101862.19;;;16.41;48.06
22000;BME280;11164;48.818;2.322;2022-11-12T12:23:48;101857.63;;;16.48;47.73
22000;BME280;11164;48.818;2.322;2022-11-12T12:26:22;101843.78;;;16.57;47.72
22000;BME280;11164;48.818;2.322;2022-11-12T12:28:58;101838.97;;;16.59;47.45
22000;BME280;11164;48.818;2.322;2022-11-12T12:31:29;101842.31;;;16.47;48.32
22000;BME280;11164;48.818;2.322;2022-11-12T12:33:58;101832.66;;;16.51;48.15
22000;BME280;11164;48.818;2.322;2022-11-12T12:36:38;101844.81;;;16.42;48.09
22000;BME280;11164;48.818;2.322;2022-11-12T12:39:13;101840.84;;;16.31;47.94
22000;BME280;11164;48.818;2.322;2022-11-12T12:41:55;101836.22;;;16.32;47.53
22000;BME280;11164;48.818;2.322;2022-11-12T12:44:21;101834.16;;;16.54;47.58
22000;BME280;11164;48.818;2.322;2022-11-12T12:47:09;101833.75;;;16.57;47.46
22000;BME280;11164;48.818;2.322;2022-11-12T12:49:37;101825.16;;;16.54;47.37
22000;BME280;11164;48.818;2.322;2022-11-12T12:52:04;101827.66;;;16.48;47.42
22000;BME280;11164;48.818;2.322;2022-11-12T12:57:04;101822.41;;;16.40;47.57
22000;BME280;11164;48.818;2.322;2022-11-12T12:59:29;101814.44;;;16.32;47.59
22000;BME280;11164;48.818;2.322;2022-11-12T13:02:00;101825.78;;;16.49;47.64
22000;BME280;11164;48.818;2.322;2022-11-12T13:04:48;101811.16;;;16.83;46.27
22000;BME280;11164;48.818;2.322;2022-11-12T13:07:16;101807.13;;;18.48;43.29
22000;BME280;11164;48.818;2.322;2022-11-12T13:09:41;101811.44;;;19.80;40.72
22000;BME280;11164;48.818;2.322;2022-11-12T13:12:08;101803.34;;;20.46;39.43
22000;BME280;11164;48.818;2.322;2022-11-12T13:48:45;101765.72;;;18.95;43.09
22000;BME280;11164;48.818;2.322;2022-11-12T13:51:13;101758.47;;;18.82;44.25
22000;BME280;11164;48.818;2.322;2022-11-12T13:53:41;101753.00;;;18.64;44.70
22000;BME280;11164;48.818;2.322;2022-11-12T13:56:09;101763.34;;;18.55;44.94
22000;BME280;11164;48.818;2.322;2022-11-12T13:58:35;101769.22;;;18.59;44.99
22000;BME280;11164;48.818;2.322;2022-11-12T14:01:02;101759.63;;;18.74;44.62
22000;BME280;11164;48.818;2.322;2022-11-12T14:03:41;101754.31;;;18.80;43.91
22000;BME280;11164;48.818;2.322;2022-11-12T14:06:30;101762.03;;;18.83;43.29
22000;BME280;11164;48.818;2.322;2022-11-12T14:11:45;101752.72;;;18.90;43.58
22000;BME280;11164;48.818;2.322;2022-11-12T14:19:36;101740.84;;;18.60;44.63
22000;BME280;11164;48.818;2.322;2022-11-12T14:24:33;101738.81;;;18.73;45.18
22000;BME280;11164;48.818;2.322;2022-11-12T14:26:58;101736.41;;;18.84;45.05
22000;BME280;11164;48.818;2.322;2022-11-12T14:29:24;101718.09;;;18.84;45.03
22000;BME280;11164;48.818;2.322;2022-11-12T14:31:59;101736.13;;;19.29;43.93